sensor_id;sensor_type;location;lat;lon;timestamp;pressure;altitude;pressure_sealevel;temperature;humidity
6349;BME280;3207;42.648;23.406;2023-02-18T00:01:58;100832.53;;;10.51;nan
6349;BME280;3207;42.648;23.406;2023-02-18T00:04:25;100832.53;;;10.51;nan
6349;BME280;3207;42.648;23.406;2023-02-18T00:06:52;100831.59;;;10.52;nan
6349;BME280;3207;42.648;23.406;2023-02-18T00:09:19;100827.50;;;10.48;nan
6349;BME280;3207;42.648;23.406;2023-02-18T00:11:46;100829.44;;;10.44;nan
6349;BME280;3207;42.648;23.406;2023-02-18T00:14:14;100835.69;;;10.42;nan
6349;BME280;3207;42.648;23.406;2023-02-18T00:16:42;100825.97;;;10.44;nan
6349;BME280;3207;42.648;23.406;2023-02-18T00:19:12;100829.34;;;10.46;nan
6349;BME280;3207;42.648;23.406;2023-02-18T00:21:40;100824.38;;;10.41;nan
6349;BME280;3207;42.648;23.406;2023-02-18T00:24:08;100828.22;;;10.36;nan
6349;BME280;3207;42.648;23.406;2023-02-18T00:26:35;100820.72;;;10.30;nan
6349;BME280;3207;42.648;23.406;2023-02-18T00:29:02;100824.84;;;10.34;nan
6349;BME280;3207;42.648;23.406;2023-02-18T00:31:31;100819.91;;;10.43;nan
6349;BME280;3207;42.648;23.406;2023-02-18T00:33:59;100813.09;;;10.41;nan
6349;BME280;3207;42.648;23.406;2023-02-18T00:36:28;100805.78;;;10.32;nan
6349;BME280;3207;42.648;23.406;2023-02-18T00:38:56;100823.44;;;10.42;nan
6349;BME280;3207;42.648;23.406;2023-02-18T00:41:26;100818.13;;;10.44;nan
6349;BME280;3207;42.648;23.406;2023-02-18T00:43:53;100815.34;;;10.47;nan
6349;BME280;3207;42.648;23.406;2023-02-18T00:46:21;100815.69;;;10.41;nan
6349;BME280;3207;42.648;23.406;2023-02-18T00:48:48;100825.13;;;10.43;nan
6349;BME280;3207;42.648;23.406;2023-02-18T00:51:15;100833.56;;;10.48;nan
6349;BME280;3207;42.648;23.406;2023-02-18T00:53:43;100832.53;;;10.51;nan
6349;BME280;3207;42.648;23.406;2023-02-18T00:56:10;100839.59;;;10.49;nan
6349;BME280;3207;42.648;23.406;2023-02-18T00:58:37;100821.97;;;10.38;nan
6349;BME280;3207;42.648;23.406;2023-02-18T01:01:05;100828.50;;;10.45;nan
6349;BME280;3207;42.648;23.406;2023-02-18T01:03:32;100828.22;;;10.36;nan
6349;BME280;3207;42.648;23.406;2023-02-18T01:05:59;100822.69;;;10.40;nan
6349;BME280;3207;42.648;23.406;2023-02-18T01:08:25;100818.06;;;10.45;nan
6349;BME280;3207;42.648;23.406;2023-02-18T01:10:56;100819.81;;;10.45;nan
6349;BME280;3207;42.648;23.406;2023-02-18T01:13:23;100815.78;;;10.39;nan
6349;BME280;3207;42.648;23.406;2023-02-18T01:15:50;100814.00;;;10.40;nan
6349;BME280;3207;42.648;23.406;2023-02-18T01:18:18;100813.66;;;10.46;nan
6349;BME280;3207;42.648;23.406;2023-02-18T01:20:45;100819.28;;;10.54;nan
6349;BME280;3207;42.648;23.406;2023-02-18T01:23:13;100822.06;;;10.51;nan
6349;BME280;3207;42.648;23.406;2023-02-18T01:25:40;100824.13;;;10.46;nan
6349;BME280;3207;42.648;23.406;2023-02-18T01:28:10;100814.75;;;10.27;nan
6349;BME280;3207;42.648;23.406;2023-02-18T01:30:37;100830.81;;;10.36;nan
6349;BME280;3207;42.648;23.406;2023-02-18T01:33:04;100818.94;;;10.30;nan
6349;BME280;3207;42.648;23.406;2023-02-18T01:35:32;100831.59;;;10.38;nan
6349;BME280;3207;42.648;23.406;2023-02-18T01:37:59;100827.47;;;10.34;nan
6349;BME280;3207;42.648;23.406;2023-02-18T01:40:27;100842.97;;;10.37;nan
6349;BME280;3207;42.648;23.406;2023-02-18T01:42:54;100837.06;;;10.33;nan
6349;BME280;3207;42.648;23.406;2023-02-18T01:45:56;100837.59;;;10.24;nan
6349;BME280;3207;42.648;23.406;2023-02-18T01:48:25;100825.47;;;10.23;nan
6349;BME280;3207;42.648;23.406;2023-02-18T01:50:56;100813.41;;;10.20;nan
6349;BME280;3207;42.648;23.406;2023-02-18T01:53:27;100816.38;;;10.14;nan
6349;BME280;3207;42.648;23.406;2023-02-18T01:55:57;100814.75;;;10.12;nan
6349;BME280;3207;42.648;23.406;2023-02-18T01:58:25;100821.59;;;10.14;nan
6349;BME280;3207;42.648;23.406;2023-02-18T02:00:52;100809.78;;;10.07;nan
6349;BME280;3207;42.648;23.406;2023-02-18T02:03:20;100796.09;;;9.88;nan
6349;BME280;3207;42.648;23.406;2023-02-18T02:05:47;100798.63;;;9.89;nan
6349;BME280;3207;42.648;23.406;2023-02-18T02:08:13;100817.75;;;10.06;nan
6349;BME280;3207;42.648;23.406;2023-02-18T02:10:52;100802.16;;;10.04;nan
6349;BME280;3207;42.648;23.406;2023-02-18T02:13:33;100810.63;;;10.08;nan
6349;BME280;3207;42.648;23.406;2023-02-18T02:16:07;100811.69;;;10.05;nan
6349;BME280;3207;42.648;23.406;2023-02-18T02:18:48;100810.56;;;10.09;nan
6349;BME280;3207;42.648;23.406;2023-02-18T02:21:53;100810.38;;;10.12;nan
6349;BME280;3207;42.648;23.406;2023-02-18T02:24:49;100797.41;;;10.11;nan
6349;BME280;3207;42.648;23.406;2023-02-18T02:27:25;100785.56;;;10.05;nan
6349;BME280;3207;42.648;23.406;2023-02-18T02:30:23;100789.34;;;10.00;nan
6349;BME280;3207;42.648;23.406;2023-02-18T02:36:00;100775.28;;;10.02;nan
6349;BME280;3207;42.648;23.406;2023-02-18T02:38:32;100776.03;;;10.04;nan
6349;BME280;3207;42.648;23.406;2023-02-18T02:41:09;100777.50;;;10.08;nan
6349;BME280;3207;42.648;23.406;2023-02-18T02:43:51;100762.38;;;9.99;nan
6349;BME280;3207;42.648;23.406;2023-02-18T02:46:25;100767.44;;;10.02;nan
6349;BME280;3207;42.648;23.406;2023-02-18T02:48:58;100763.41;;;9.97;nan
6349;BME280;3207;42.648;23.406;2023-02-18T02:51:33;100775.75;;;10.09;nan
6349;BME280;3207;42.648;23.406;2023-02-18T02:54:09;100768.75;;;10.09;nan
6349;BME280;3207;42.648;23.406;2023-02-18T02:56:37;100774.22;;;10.20;nan
6349;BME280;3207;42.648;23.406;2023-02-18T02:59:06;100769.75;;;10.22;nan
6349;BME280;3207;42.648;23.406;2023-02-18T03:01:40;100780.22;;;10.22;nan
6349;BME280;3207;42.648;23.406;2023-02-18T03:04:22;100770.44;;;10.10;nan
6349;BME280;3207;42.648;23.406;2023-02-18T03:07:05;100771.91;;;10.00;nan
6349;BME280;3207;42.648;23.406;2023-02-18T03:09:46;100773.38;;;9.90;nan
6349;BME280;3207;42.648;23.406;2023-02-18T03:12:26;100764.28;;;9.81;nan
6349;BME280;3207;42.648;23.406;2023-02-18T03:14:58;100760.16;;;9.77;nan
6349;BME280;3207;42.648;23.406;2023-02-18T03:17:30;100760.53;;;9.71;nan
6349;BME280;3207;42.648;23.406;2023-02-18T03:20:04;100763.22;;;9.70;nan
6349;BME280;3207;42.648;23.406;2023-02-18T03:22:39;100762.28;;;9.71;nan
6349;BME280;3207;42.648;23.406;2023-02-18T03:25:07;100753.72;;;9.69;nan
6349;BME280;3207;42.648;23.406;2023-02-18T03:27:39;100753.53;;;9.72;nan
6349;BME280;3207;42.648;23.406;2023-02-18T03:30:13;100755.03;;;9.76;nan
6349;BME280;3207;42.648;23.406;2023-02-18T03:32:41;100758.41;;;9.78;nan
6349;BME280;3207;42.648;23.406;2023-02-18T03:35:12;100758.94;;;9.69;nan
6349;BME280;3207;42.648;23.406;2023-02-18T03:37:44;100769.78;;;9.77;nan
6349;BME280;3207;42.648;23.406;2023-02-18T03:40:14;100767.53;;;9.71;nan
6349;BME280;3207;42.648;23.406;2023-02-18T03:42:42;100771.81;;;9.72;nan
6349;BME280;3207;42.648;23.406;2023-02-18T03:45:09;100772.66;;;9.72;nan
6349;BME280;3207;42.648;23.406;2023-02-18T03:47:36;100762.81;;;9.62;nan
6349;BME280;3207;42.648;23.406;2023-02-18T03:50:04;100759.00;;;9.67;nan
6349;BME280;3207;42.648;23.406;2023-02-18T03:52:31;100763.31;;;9.68;nan
6349;BME280;3207;42.648;23.406;2023-02-18T03:55:02;100759.94;;;9.66;nan
6349;BME280;3207;42.648;23.406;2023-02-18T03:57:30;100751.38;;;9.48;nan
6349;BME280;3207;42.648;23.406;2023-02-18T03:59:56;100763.91;;;9.58;nan
6349;BME280;3207;42.648;23.406;2023-02-18T04:02:23;100761.91;;;9.63;nan
6349;BME280;3207;42.648;23.406;2023-02-18T04:04:50;100767.28;;;9.60;nan
6349;BME280;3207;42.648;23.406;2023-02-18T04:07:17;100752.09;;;9.66;nan
6349;BME280;3207;42.648;23.406;2023-02-18T04:09:43;100765.16;;;9.66;nan
6349;BME280;3207;42.648;23.406;2023-02-18T04:12:12;100769.72;;;9.63;nan
6349;BME280;3207;42.648;23.406;2023-02-18T04:14:38;100763.16;;;9.55;nan
6349;BME280;3207;42.648;23.406;2023-02-18T04:17:05;100765.00;;;9.53;nan
6349;BME280;3207;42.648;23.406;2023-02-18T04:19:32;100764.19;;;9.53;nan
6349;BME280;3207;42.648;23.406;2023-02-18T04:21:59;100763.50;;;9.49;nan
6349;BME280;3207;42.648;23.406;2023-02-18T04:24:26;100775.38;;;9.39;nan
6349;BME280;3207;42.648;23.406;2023-02-18T04:26:53;100765.34;;;9.47;nan
6349;BME280;3207;42.648;23.406;2023-02-18T04:29:21;100753.22;;;9.46;nan
6349;BME280;3207;42.648;23.406;2023-02-18T04:31:48;100761.41;;;9.40;nan
6349;BME280;3207;42.648;23.406;2023-02-18T04:34:15;100757.59;;;9.46;nan
6349;BME280;3207;42.648;23.406;2023-02-18T04:36:41;100755.09;;;9.44;nan
6349;BME280;3207;42.648;23.406;2023-02-18T04:39:08;100763.50;;;9.49;nan
6349;BME280;3207;42.648;23.406;2023-02-18T04:41:35;100764.78;;;9.42;nan
6349;BME280;3207;42.648;23.406;2023-02-18T04:44:02;100767.41;;;9.42;nan
6349;BME280;3207;42.648;23.406;2023-02-18T04:46:30;100765.28;;;9.33;nan
6349;BME280;3207;42.648;23.406;2023-02-18T04:48:57;100769.25;;;9.40;nan
6349;BME280;3207;42.648;23.406;2023-02-18T04:51:24;100766.63;;;9.40;nan
6349;BME280;3207;42.648;23.406;2023-02-18T04:53:51;100772.25;;;9.48;nan
6349;BME280;3207;42.648;23.406;2023-02-18T04:56:17;100764.94;;;9.39;nan
6349;BME280;3207;42.648;23.406;2023-02-18T04:58:44;100770.41;;;9.35;nan
6349;BME280;3207;42.648;23.406;2023-02-18T05:01:11;100767.03;;;9.48;nan
6349;BME280;3207;42.648;23.406;2023-02-18T05:03:40;100771.50;;;9.46;nan
6349;BME280;3207;42.648;23.406;2023-02-18T05:06:06;100768.41;;;9.40;nan
6349;BME280;3207;42.648;23.406;2023-02-18T05:08:33;100762.66;;;9.33;nan
6349;BME280;3207;42.648;23.406;2023-02-18T05:11:04;100769.25;;;9.40;nan
6349;BME280;3207;42.648;23.406;2023-02-18T05:13:31;100762.50;;;9.36;nan
6349;BME280;3207;42.648;23.406;2023-02-18T05:15:58;100747.25;;;9.44;nan
6349;BME280;3207;42.648;23.406;2023-02-18T05:18:25;100758.38;;;9.48;nan
6349;BME280;3207;42.648;23.406;2023-02-18T05:20:53;100768.66;;;9.51;nan
6349;BME280;3207;42.648;23.406;2023-02-18T05:23:20;100765.19;;;9.50;nan
6349;BME280;3207;42.648;23.406;2023-02-18T05:25:46;100771.50;;;9.46;nan
6349;BME280;3207;42.648;23.406;2023-02-18T05:28:13;100764.44;;;9.48;nan
6349;BME280;3207;42.648;23.406;2023-02-18T05:30:40;100758.38;;;9.48;nan
6349;BME280;3207;42.648;23.406;2023-02-18T05:33:07;100768.56;;;9.52;nan
6349;BME280;3207;42.648;23.406;2023-02-18T05:35:33;100767.03;;;9.48;nan
6349;BME280;3207;42.648;23.406;2023-02-18T05:38:02;100757.94;;;9.55;nan
6349;BME280;3207;42.648;23.406;2023-02-18T05:40:28;100765.97;;;9.52;nan
6349;BME280;3207;42.648;23.406;2023-02-18T05:42:55;100740.03;;;9.49;nan
6349;BME280;3207;42.648;23.406;2023-02-18T05:45:22;100750.19;;;9.54;nan
6349;BME280;3207;42.648;23.406;2023-02-18T05:47:49;100753.75;;;9.53;nan
6349;BME280;3207;42.648;23.406;2023-02-18T05:50:16;100755.69;;;9.49;nan
6349;BME280;3207;42.648;23.406;2023-02-18T05:52:43;100762.19;;;9.42;nan
6349;BME280;3207;42.648;23.406;2023-02-18T05:55:11;100763.84;;;9.43;nan
6349;BME280;3207;42.648;23.406;2023-02-18T05:57:38;100758.28;;;9.49;nan
6349;BME280;3207;42.648;23.406;2023-02-18T06:00:06;100753.31;;;9.45;nan
6349;BME280;3207;42.648;23.406;2023-02-18T06:02:34;100766.03;;;9.35;nan
6349;BME280;3207;42.648;23.406;2023-02-18T06:05:01;100751.97;;;9.38;nan
6349;BME280;3207;42.648;23.406;2023-02-18T06:07:28;100751.75;;;9.42;nan
6349;BME280;3207;42.648;23.406;2023-02-18T06:09:54;100755.34;;;9.40;nan
6349;BME280;3207;42.648;23.406;2023-02-18T06:12:23;100769.28;;;9.54;nan
6349;BME280;3207;42.648;23.406;2023-02-18T06:14:50;100762.38;;;9.53;nan
6349;BME280;3207;42.648;23.406;2023-02-18T06:17:16;100774.50;;;9.54;nan
6349;BME280;3207;42.648;23.406;2023-02-18T06:19:44;100773.94;;;9.49;nan
6349;BME280;3207;42.648;23.406;2023-02-18T06:22:11;100773.53;;;9.41;nan
6349;BME280;3207;42.648;23.406;2023-02-18T06:24:38;100780.19;;;9.31;nan
6349;BME280;3207;42.648;23.406;2023-02-18T06:27:05;100786.56;;;9.26;nan
6349;BME280;3207;42.648;23.406;2023-02-18T06:29:33;100786.91;;;9.35;nan
6349;BME280;3207;42.648;23.406;2023-02-18T06:32:01;100792.13;;;9.35;nan
6349;BME280;3207;42.648;23.406;2023-02-18T06:34:28;100802.75;;;9.32;nan
6349;BME280;3207;42.648;23.406;2023-02-18T06:36:54;100792.03;;;9.37;nan
6349;BME280;3207;42.648;23.406;2023-02-18T06:39:21;100783.66;;;9.32;nan
6349;BME280;3207;42.648;23.406;2023-02-18T06:41:48;100784.50;;;9.32;nan
6349;BME280;3207;42.648;23.406;2023-02-18T06:44:15;100786.41;;;9.44;nan
6349;BME280;3207;42.648;23.406;2023-02-18T06:46:43;100778.56;;;9.44;nan
6349;BME280;3207;42.648;23.406;2023-02-18T06:49:10;100792.97;;;9.51;nan
6349;BME280;3207;42.648;23.406;2023-02-18T06:51:37;100794.75;;;9.51;nan
6349;BME280;3207;42.648;23.406;2023-02-18T06:54:04;100781.63;;;9.52;nan
6349;BME280;3207;42.648;23.406;2023-02-18T06:56:31;100784.03;;;9.55;nan
6349;BME280;3207;42.648;23.406;2023-02-18T06:58:58;100783.88;;;9.59;nan
6349;BME280;3207;42.648;23.406;2023-02-18T07:01:25;100797.16;;;9.70;nan
6349;BME280;3207;42.648;23.406;2023-02-18T07:03:53;100799.69;;;9.71;nan
6349;BME280;3207;42.648;23.406;2023-02-18T07:06:20;100797.66;;;9.76;nan
6349;BME280;3207;42.648;23.406;2023-02-18T07:08:47;100794.78;;;9.81;nan
6349;BME280;3207;42.648;23.406;2023-02-18T07:11:13;100798.72;;;9.88;nan
6349;BME280;3207;42.648;23.406;2023-02-18T07:13:40;100792.56;;;9.89;nan
6349;BME280;3207;42.648;23.406;2023-02-18T07:16:08;100790.19;;;10.00;nan
6349;BME280;3207;42.648;23.406;2023-02-18T07:18:35;100798.63;;;10.05;nan
6349;BME280;3207;42.648;23.406;2023-02-18T07:21:03;100791.84;;;10.17;nan
6349;BME280;3207;42.648;23.406;2023-02-18T07:23:30;100790.16;;;10.16;nan
6349;BME280;3207;42.648;23.406;2023-02-18T07:26:05;100790.81;;;10.19;nan
6349;BME280;3207;42.648;23.406;2023-02-18T07:28:32;100781.38;;;10.17;nan
6349;BME280;3207;42.648;23.406;2023-02-18T07:30:59;100797.41;;;10.26;nan
6349;BME280;3207;42.648;23.406;2023-02-18T07:33:26;100789.84;;;10.36;nan
6349;BME280;3207;42.648;23.406;2023-02-18T07:35:54;100790.59;;;10.38;nan
6349;BME280;3207;42.648;23.406;2023-02-18T07:38:23;100782.22;;;10.47;nan
6349;BME280;3207;42.648;23.406;2023-02-18T07:40:50;100790.13;;;10.60;nan
6349;BME280;3207;42.648;23.406;2023-02-18T07:43:17;100793.50;;;10.62;nan
6349;BME280;3207;42.648;23.406;2023-02-18T07:45:44;100801.38;;;10.76;nan
6349;BME280;3207;42.648;23.406;2023-02-18T07:48:11;100800.97;;;10.82;nan
6349;BME280;3207;42.648;23.406;2023-02-18T07:50:40;100802.50;;;11.00;nan
6349;BME280;3207;42.648;23.406;2023-02-18T07:53:08;100760.25;;;10.92;nan
6349;BME280;3207;42.648;23.406;2023-02-18T07:55:37;100797.47;;;11.38;nan
6349;BME280;3207;42.648;23.406;2023-02-18T07:58:17;100789.28;;;11.57;nan
6349;BME280;3207;42.648;23.406;2023-02-18T08:00:44;100807.19;;;11.78;nan
6349;BME280;3207;42.648;23.406;2023-02-18T08:03:14;100782.91;;;11.88;nan
6349;BME280;3207;42.648;23.406;2023-02-18T08:05:42;100802.63;;;12.33;nan
6349;BME280;3207;42.648;23.406;2023-02-18T08:08:12;100805.28;;;12.59;nan
6349;BME280;3207;42.648;23.406;2023-02-18T08:10:41;100799.28;;;12.69;nan
6349;BME280;3207;42.648;23.406;2023-02-18T08:13:08;100808.81;;;12.83;nan
6349;BME280;3207;42.648;23.406;2023-02-18T08:15:35;100806.72;;;12.88;nan
6349;BME280;3207;42.648;23.406;2023-02-18T08:18:03;100811.78;;;12.91;nan
6349;BME280;3207;42.648;23.406;2023-02-18T08:20:30;100812.06;;;12.99;nan
6349;BME280;3207;42.648;23.406;2023-02-18T08:22:57;100798.41;;;13.19;nan
6349;BME280;3207;42.648;23.406;2023-02-18T08:25:23;100796.28;;;13.25;nan
6349;BME280;3207;42.648;23.406;2023-02-18T08:27:51;100799.97;;;13.35;nan
6349;BME280;3207;42.648;23.406;2023-02-18T08:30:19;100799.72;;;13.38;nan
6349;BME280;3207;42.648;23.406;2023-02-18T08:32:45;100797.06;;;13.50;nan
6349;BME280;3207;42.648;23.406;2023-02-18T08:35:12;100793.66;;;13.61;nan
6349;BME280;3207;42.648;23.406;2023-02-18T08:37:39;100796.59;;;13.80;nan
6349;BME280;3207;42.648;23.406;2023-02-18T08:40:08;100780.16;;;13.89;nan
6349;BME280;3207;42.648;23.406;2023-02-18T08:42:35;100793.97;;;14.04;nan
6349;BME280;3207;42.648;23.406;2023-02-18T08:45:03;100787.47;;;14.32;nan
6349;BME280;3207;42.648;23.406;2023-02-18T08:47:31;100794.44;;;14.44;nan
6349;BME280;3207;42.648;23.406;2023-02-18T08:49:58;100795.22;;;14.69;nan
6349;BME280;3207;42.648;23.406;2023-02-18T08:52:25;100795.22;;;14.80;nan
6349;BME280;3207;42.648;23.406;2023-02-18T08:54:52;100799.78;;;15.00;nan
6349;BME280;3207;42.648;23.406;2023-02-18T08:57:18;100802.34;;;15.45;nan
6349;BME280;3207;42.648;23.406;2023-02-18T08:59:45;100804.31;;;15.86;nan
6349;BME280;3207;42.648;23.406;2023-02-18T09:02:13;100807.06;;;15.84;nan
6349;BME280;3207;42.648;23.406;2023-02-18T09:04:40;100804.41;;;15.84;nan
6349;BME280;3207;42.648;23.406;2023-02-18T09:07:07;100801.53;;;15.87;nan
6349;BME280;3207;42.648;23.406;2023-02-18T09:09:34;100807.06;;;15.84;nan
6349;BME280;3207;42.648;23.406;2023-02-18T09:12:01;100799.31;;;15.71;nan
6349;BME280;3207;42.648;23.406;2023-02-18T09:14:28;100810.47;;;15.64;nan
6349;BME280;3207;42.648;23.406;2023-02-18T09:16:55;100801.09;;;15.71;nan
6349;BME280;3207;42.648;23.406;2023-02-18T09:19:24;100804.16;;;15.44;nan
6349;BME280;3207;42.648;23.406;2023-02-18T09:21:51;100810.19;;;15.24;nan
6349;BME280;3207;42.648;23.406;2023-02-18T09:24:18;100790.97;;;15.44;nan
6349;BME280;3207;42.648;23.406;2023-02-18T09:26:45;100816.91;;;15.71;nan
6349;BME280;3207;42.648;23.406;2023-02-18T09:29:12;100811.72;;;16.13;nan
6349;BME280;3207;42.648;23.406;2023-02-18T09:31:39;100816.59;;;16.70;nan
6349;BME280;3207;42.648;23.406;2023-02-18T09:34:06;100815.84;;;16.89;nan
6349;BME280;3207;42.648;23.406;2023-02-18T09:36:34;100814.44;;;17.65;nan
6349;BME280;3207;42.648;23.406;2023-02-18T09:39:01;100810.25;;;18.39;nan
6349;BME280;3207;42.648;23.406;2023-02-18T09:41:32;100806.69;;;19.14;nan
6349;BME280;3207;42.648;23.406;2023-02-18T09:44:03;100817.91;;;19.81;nan
6349;BME280;3207;42.648;23.406;2023-02-18T09:46:33;100810.38;;;19.94;nan
6349;BME280;3207;42.648;23.406;2023-02-18T09:49:02;100809.13;;;19.80;nan
6349;BME280;3207;42.648;23.406;2023-02-18T09:51:29;100818.44;;;20.02;nan
6349;BME280;3207;42.648;23.406;2023-02-18T09:53:58;100817.44;;;20.03;nan
6349;BME280;3207;42.648;23.406;2023-02-18T09:56:28;100812.00;;;19.87;nan
6349;BME280;3207;42.648;23.406;2023-02-18T09:58:57;100798.03;;;19.49;nan
6349;BME280;3207;42.648;23.406;2023-02-18T10:01:29;100796.56;;;19.55;nan
6349;BME280;3207;42.648;23.406;2023-02-18T10:04:02;100803.94;;;19.06;nan
6349;BME280;3207;42.648;23.406;2023-02-18T10:06:31;100800.88;;;18.74;nan
6349;BME280;3207;42.648;23.406;2023-02-18T10:09:02;100797.69;;;18.60;nan
6349;BME280;3207;42.648;23.406;2023-02-18T10:11:32;100789.78;;;18.12;nan
6349;BME280;3207;42.648;23.406;2023-02-18T10:14:01;100800.25;;;17.95;nan
6349;BME280;3207;42.648;23.406;2023-02-18T10:16:29;100800.81;;;17.79;nan
6349;BME280;3207;42.648;23.406;2023-02-18T10:18:58;100800.78;;;17.10;nan
6349;BME280;3207;42.648;23.406;2023-02-18T10:21:29;100798.03;;;17.21;nan
6349;BME280;3207;42.648;23.406;2023-02-18T10:24:02;100784.00;;;16.90;nan
6349;BME280;3207;42.648;23.406;2023-02-18T10:26:33;100771.78;;;16.38;nan
6349;BME280;3207;42.648;23.406;2023-02-18T10:29:00;100783.00;;;16.30;nan
6349;BME280;3207;42.648;23.406;2023-02-18T10:31:30;100780.34;;;16.51;nan
6349;BME280;3207;42.648;23.406;2023-02-18T10:34:04;100777.72;;;16.30;nan
6349;BME280;3207;42.648;23.406;2023-02-18T10:36:35;100776.72;;;16.10;nan
6349;BME280;3207;42.648;23.406;2023-02-18T10:39:23;100788.25;;;15.89;nan
6349;BME280;3207;42.648;23.406;2023-02-18T10:42:04;100785.13;;;15.84;nan
6349;BME280;3207;42.648;23.406;2023-02-18T10:44:41;100786.38;;;15.68;nan
6349;BME280;3207;42.648;23.406;2023-02-18T10:47:19;100789.41;;;15.64;nan
6349;BME280;3207;42.648;23.406;2023-02-18T10:49:57;100786.06;;;15.39;nan
6349;BME280;3207;42.648;23.406;2023-02-18T10:52:26;100791.19;;;15.63;nan
6349;BME280;3207;42.648;23.406;2023-02-18T10:55:00;100780.22;;;15.79;nan
6349;BME280;3207;42.648;23.406;2023-02-18T10:57:29;100787.06;;;16.02;nan
6349;BME280;3207;42.648;23.406;2023-02-18T10:59:58;100778.22;;;16.24;nan
6349;BME280;3207;42.648;23.406;2023-02-18T11:02:28;100781.75;;;16.14;nan
6349;BME280;3207;42.648;23.406;2023-02-18T11:04:58;100777.59;;;16.00;nan
6349;BME280;3207;42.648;23.406;2023-02-18T11:07:30;100771.81;;;15.85;nan
6349;BME280;3207;42.648;23.406;2023-02-18T11:10:01;100780.00;;;15.71;nan
6349;BME280;3207;42.648;23.406;2023-02-18T11:12:43;100759.16;;;15.68;nan
6349;BME280;3207;42.648;23.406;2023-02-18T11:15:20;100753.47;;;15.52;nan
6349;BME280;3207;42.648;23.406;2023-02-18T11:17:49;100754.22;;;15.43;nan
6349;BME280;3207;42.648;23.406;2023-02-18T11:20:24;100741.06;;;15.31;nan
6349;BME280;3207;42.648;23.406;2023-02-18T11:22:53;100740.59;;;15.26;nan
6349;BME280;3207;42.648;23.406;2023-02-18T11:25:25;100750.22;;;14.94;nan
6349;BME280;3207;42.648;23.406;2023-02-18T11:27:55;100746.41;;;14.87;nan
6349;BME280;3207;42.648;23.406;2023-02-18T11:30:25;100739.09;;;15.01;nan
6349;BME280;3207;42.648;23.406;2023-02-18T11:32:59;100732.06;;;14.80;nan
6349;BME280;3207;42.648;23.406;2023-02-18T11:35:30;100732.66;;;14.72;nan
6349;BME280;3207;42.648;23.406;2023-02-18T11:37:58;100719.13;;;14.65;nan
6349;BME280;3207;42.648;23.406;2023-02-18T11:40:30;100717.94;;;14.47;nan
6349;BME280;3207;42.648;23.406;2023-02-18T11:43:03;100715.91;;;14.51;nan
6349;BME280;3207;42.648;23.406;2023-02-18T11:45:32;100703.34;;;14.54;nan
6349;BME280;3207;42.648;23.406;2023-02-18T11:48:00;100714.34;;;14.59;nan
6349;BME280;3207;42.648;23.406;2023-02-18T11:50:33;100708.47;;;14.56;nan
6349;BME280;3207;42.648;23.406;2023-02-18T11:53:24;100710.28;;;14.55;nan
6349;BME280;3207;42.648;23.406;2023-02-18T11:55:55;100703.09;;;14.46;nan
6349;BME280;3207;42.648;23.406;2023-02-18T11:58:22;100700.81;;;14.64;nan
6349;BME280;3207;42.648;23.406;2023-02-18T12:00:50;100704.06;;;14.56;nan
6349;BME280;3207;42.648;23.406;2023-02-18T12:03:32;100690.19;;;14.43;nan
6349;BME280;3207;42.648;23.406;2023-02-18T12:06:03;100687.06;;;14.38;nan
6349;BME280;3207;42.648;23.406;2023-02-18T12:08:36;100684.69;;;14.57;nan
6349;BME280;3207;42.648;23.406;2023-02-18T12:11:09;100669.34;;;14.62;nan
6349;BME280;3207;42.648;23.406;2023-02-18T12:13:50;100681.66;;;14.73;nan
6349;BME280;3207;42.648;23.406;2023-02-18T12:16:27;100674.88;;;14.59;nan
6349;BME280;3207;42.648;23.406;2023-02-18T12:19:12;100671.75;;;14.65;nan
6349;BME280;3207;42.648;23.406;2023-02-18T12:21:52;100670.34;;;14.50;nan
6349;BME280;3207;42.648;23.406;2023-02-18T12:24:36;100663.00;;;14.32;nan
6349;BME280;3207;42.648;23.406;2023-02-18T12:27:13;100664.22;;;14.39;nan
6349;BME280;3207;42.648;23.406;2023-02-18T12:29:55;100659.56;;;14.42;nan
6349;BME280;3207;42.648;23.406;2023-02-18T12:32:35;100664.56;;;14.34;nan
6349;BME280;3207;42.648;23.406;2023-02-18T12:35:35;100652.88;;;14.49;nan
6349;BME280;3207;42.648;23.406;2023-02-18T12:38:20;100652.16;;;14.70;nan
6349;BME280;3207;42.648;23.406;2023-02-18T12:41:11;100643.97;;;14.73;nan
6349;BME280;3207;42.648;23.406;2023-02-18T12:43:53;100642.78;;;14.88;nan
6349;BME280;3207;42.648;23.406;2023-02-18T12:46:37;100641.38;;;15.05;nan
6349;BME280;3207;42.648;23.406;2023-02-18T12:49:27;100632.94;;;15.01;nan
6349;BME280;3207;42.648;23.406;2023-02-18T12:52:06;100626.09;;;14.98;nan
6349;BME280;3207;42.648;23.406;2023-02-18T12:57:51;100612.78;;;15.11;nan
6349;BME280;3207;42.648;23.406;2023-02-18T13:00:47;100605.09;;;15.19;nan
6349;BME280;3207;42.648;23.406;2023-02-18T13:03:30;100594.97;;;15.35;nan
6349;BME280;3207;42.648;23.406;2023-02-18T13:06:07;100589.41;;;15.38;nan
6349;BME280;3207;42.648;23.406;2023-02-18T13:08:45;100583.19;;;15.39;nan
6349;BME280;3207;42.648;23.406;2023-02-18T13:11:27;100566.34;;;15.31;nan
6349;BME280;3207;42.648;23.406;2023-02-18T13:14:00;100568.75;;;15.34;nan
6349;BME280;3207;42.648;23.406;2023-02-18T13:16:33;100560.06;;;15.43;nan
6349;BME280;3207;42.648;23.406;2023-02-18T13:19:09;100562.63;;;15.33;nan
6349;BME280;3207;42.648;23.406;2023-02-18T13:21:42;100563.41;;;15.45;nan
6349;BME280;3207;42.648;23.406;2023-02-18T13:24:13;100559.38;;;15.62;nan
6349;BME280;3207;42.648;23.406;2023-02-18T13:26:43;100556.53;;;15.54;nan
6349;BME280;3207;42.648;23.406;2023-02-18T13:29:19;100541.69;;;15.53;nan
6349;BME280;3207;42.648;23.406;2023-02-18T13:31:59;100522.22;;;15.65;nan
6349;BME280;3207;42.648;23.406;2023-02-18T13:34:30;100526.00;;;15.72;nan
6349;BME280;3207;42.648;23.406;2023-02-18T13:37:07;100517.25;;;15.71;nan
6349;BME280;3207;42.648;23.406;2023-02-18T13:39:38;100514.47;;;15.73;nan
6349;BME280;3207;42.648;23.406;2023-02-18T13:42:24;100514.66;;;15.81;nan
6349;BME280;3207;42.648;23.406;2023-02-18T13:45:22;100511.75;;;15.84;nan
6349;BME280;3207;42.648;23.406;2023-02-18T13:47:52;100519.31;;;15.98;nan
6349;BME280;3207;42.648;23.406;2023-02-18T13:50:27;100515.56;;;16.01;nan